createdAt,value
2023-07-07T00:01:14.860Z,14.65
2023-07-07T00:03:41.071Z,14.58
2023-07-07T00:06:07.258Z,14.55
2023-07-07T00:08:33.493Z,14.51
2023-07-07T00:11:00.262Z,14.50
2023-07-07T00:13:26.760Z,14.45
2023-07-07T00:15:53.003Z,14.39
2023-07-07T00:18:19.178Z,14.30
2023-07-07T00:20:45.390Z,14.26
2023-07-07T00:23:11.929Z,14.17
2023-07-07T00:25:38.154Z,14.14
2023-07-07T00:28:04.384Z,14.07
2023-07-07T00:30:30.706Z,14.07
2023-07-07T00:32:56.999Z,14.11
2023-07-07T00:35:23.246Z,14.10
2023-07-07T00:37:49.442Z,14.11
2023-07-07T00:40:16.668Z,14.09
2023-07-07T00:42:42.960Z,14.06
2023-07-07T00:45:09.162Z,14.09
2023-07-07T00:47:35.644Z,14.10
2023-07-07T00:50:01.887Z,14.05
2023-07-07T00:52:28.062Z,14.01
2023-07-07T00:54:54.244Z,13.99
2023-07-07T00:57:20.446Z,14.07
2023-07-07T00:59:46.694Z,14.01
2023-07-07T01:02:12.956Z,14.06
2023-07-07T01:04:39.340Z,14.06
2023-07-07T01:07:05.612Z,14.06
2023-07-07T01:09:31.831Z,14.06
2023-07-07T01:11:58.041Z,13.93
2023-07-07T01:14:24.262Z,13.91
2023-07-07T01:16:50.590Z,13.81
2023-07-07T01:19:16.874Z,13.81
2023-07-07T01:21:43.051Z,13.76
2023-07-07T01:24:09.269Z,13.72
2023-07-07T01:26:35.502Z,13.66
2023-07-07T01:29:01.687Z,13.62
2023-07-07T01:31:27.962Z,13.58
2023-07-07T01:33:54.267Z,13.54
2023-07-07T01:36:20.574Z,13.47
2023-07-07T01:38:46.772Z,13.47
2023-07-07T01:41:13.001Z,13.49
2023-07-07T01:43:39.236Z,13.50
2023-07-07T01:46:05.502Z,13.49
2023-07-07T01:48:31.715Z,13.46
2023-07-07T01:50:58.183Z,13.51
2023-07-07T01:53:24.596Z,13.46
2023-07-07T01:55:50.812Z,13.47
2023-07-07T01:58:17.024Z,13.47
2023-07-07T02:00:43.373Z,13.44
2023-07-07T02:03:09.649Z,13.40
2023-07-07T02:05:36.045Z,13.41
2023-07-07T02:08:02.216Z,13.40
2023-07-07T02:10:28.491Z,13.34
2023-07-07T02:12:54.744Z,13.34
2023-07-07T02:15:20.989Z,13.38
2023-07-07T02:17:47.233Z,13.35
2023-07-07T02:20:13.436Z,13.33
2023-07-07T02:22:39.673Z,13.28
2023-07-07T02:25:05.912Z,13.24
2023-07-07T02:27:32.156Z,13.18
2023-07-07T02:29:58.393Z,13.16
2023-07-07T02:32:24.637Z,13.10
2023-07-07T02:34:50.915Z,13.03
2023-07-07T02:37:17.122Z,13.01
2023-07-07T02:39:43.344Z,12.95
2023-07-07T02:42:09.540Z,12.89
2023-07-07T02:44:35.732Z,12.84
2023-07-07T02:47:02.003Z,12.81
2023-07-07T02:49:28.224Z,12.78
2023-07-07T02:51:54.457Z,12.73
2023-07-07T02:54:20.636Z,12.69
2023-07-07T02:56:46.826Z,12.66
2023-07-07T02:59:13.066Z,12.63
2023-07-07T03:01:39.533Z,12.62
2023-07-07T03:04:05.849Z,12.57
2023-07-07T03:06:32.201Z,12.54
2023-07-07T03:08:58.650Z,12.55
2023-07-07T03:11:24.929Z,12.55
2023-07-07T03:13:51.224Z,12.51
2023-07-07T03:16:17.404Z,12.57
2023-07-07T03:18:43.599Z,12.63
2023-07-07T03:21:09.849Z,12.62
2023-07-07T03:23:36.040Z,12.67
2023-07-07T03:26:02.205Z,12.63
2023-07-07T03:28:28.457Z,12.68
2023-07-07T03:30:54.720Z,12.68
2023-07-07T03:33:20.971Z,12.62
2023-07-07T03:35:47.301Z,12.59
2023-07-07T03:38:13.516Z,12.49
2023-07-07T03:40:39.797Z,12.43
2023-07-07T03:43:06.060Z,12.35
2023-07-07T03:45:32.254Z,12.35
2023-07-07T03:47:58.524Z,12.34
2023-07-07T03:50:24.793Z,12.36
2023-07-07T03:52:51.032Z,12.39
2023-07-07T03:55:17.257Z,12.40
2023-07-07T03:57:43.449Z,12.43
2023-07-07T04:00:09.674Z,12.41
2023-07-07T04:02:35.916Z,12.50
2023-07-07T04:05:02.408Z,12.51
2023-07-07T04:07:28.869Z,12.48
2023-07-07T04:09:55.100Z,12.51
2023-07-07T04:12:21.321Z,12.49
2023-07-07T04:14:47.509Z,12.53
2023-07-07T04:17:13.757Z,12.56
2023-07-07T04:19:39.942Z,12.58
2023-07-07T04:22:06.147Z,12.60
2023-07-07T04:24:32.358Z,12.65
2023-07-07T04:26:58.889Z,12.72
2023-07-07T04:29:25.096Z,12.84
2023-07-07T04:31:51.487Z,12.90
2023-07-07T04:34:17.801Z,12.96
2023-07-07T04:36:45.878Z,13.07
2023-07-07T04:39:12.554Z,13.14
2023-07-07T04:41:38.737Z,13.20
2023-07-07T04:44:04.941Z,13.29
2023-07-07T04:46:31.144Z,13.36
2023-07-07T04:48:57.377Z,13.47
2023-07-07T04:51:23.596Z,13.59
2023-07-07T04:53:49.753Z,13.73
2023-07-07T04:56:16.000Z,13.88
2023-07-07T04:58:42.192Z,14.00
2023-07-07T05:01:08.437Z,14.24
2023-07-07T05:03:34.725Z,14.42
2023-07-07T05:06:00.993Z,14.61
2023-07-07T05:08:27.347Z,14.79
2023-07-07T05:10:53.562Z,14.96
2023-07-07T05:13:19.857Z,15.15
2023-07-07T05:15:46.123Z,15.32
2023-07-07T05:18:12.400Z,15.55
2023-07-07T05:20:38.700Z,15.72
2023-07-07T05:23:04.913Z,15.91
2023-07-07T05:25:31.124Z,16.10
2023-07-07T05:27:57.372Z,16.31
2023-07-07T05:30:23.573Z,16.52
2023-07-07T05:32:49.818Z,16.81
2023-07-07T05:35:16.159Z,17.12
2023-07-07T05:37:42.359Z,17.47
2023-07-07T05:40:08.586Z,17.75
2023-07-07T05:42:34.830Z,18.06
2023-07-07T05:45:01.043Z,18.25
2023-07-07T05:47:27.705Z,18.50
2023-07-07T05:49:54.000Z,18.68
2023-07-07T05:52:20.224Z,18.92
2023-07-07T05:54:46.472Z,19.09
2023-07-07T05:57:12.817Z,19.15
2023-07-07T05:59:39.013Z,19.35
2023-07-07T06:02:05.420Z,19.48
2023-07-07T06:04:31.674Z,19.61
2023-07-07T06:06:57.877Z,19.61
2023-07-07T06:09:24.071Z,19.79
2023-07-07T06:11:50.316Z,19.91
2023-07-07T06:14:16.593Z,20.01
2023-07-07T06:16:43.043Z,20.11
2023-07-07T06:19:09.387Z,20.17
2023-07-07T06:21:35.659Z,20.41
2023-07-07T06:24:01.962Z,20.53
2023-07-07T06:26:28.219Z,20.64
2023-07-07T06:28:54.700Z,20.69
2023-07-07T06:31:20.953Z,20.98
2023-07-07T06:33:47.193Z,21.17
2023-07-07T06:36:13.395Z,21.30
2023-07-07T06:38:50.699Z,21.24
2023-07-07T06:41:16.920Z,21.39
2023-07-07T06:43:43.132Z,21.63
2023-07-07T06:46:09.348Z,21.69
2023-07-07T06:48:36.690Z,21.76
2023-07-07T06:51:02.922Z,21.87
2023-07-07T06:53:29.174Z,21.93
2023-07-07T06:55:55.406Z,22.05
2023-07-07T06:58:21.653Z,22.13
2023-07-07T07:00:47.921Z,22.20
2023-07-07T07:03:14.242Z,22.31
2023-07-07T07:05:40.503Z,22.57
2023-07-07T07:08:06.709Z,22.85
2023-07-07T07:10:32.928Z,22.93
2023-07-07T07:12:59.147Z,23.01
2023-07-07T07:15:25.595Z,23.13
2023-07-07T07:17:51.888Z,23.27
2023-07-07T07:20:18.132Z,23.45
2023-07-07T07:22:44.302Z,23.53
2023-07-07T07:25:10.522Z,23.53
2023-07-07T07:27:36.734Z,23.63
2023-07-07T07:30:02.943Z,23.84
2023-07-07T07:32:29.153Z,24.00
2023-07-07T07:34:55.381Z,24.19
2023-07-07T07:37:21.628Z,24.13
2023-07-07T07:39:48.851Z,24.41
2023-07-07T07:42:15.097Z,24.59
2023-07-07T07:44:41.322Z,24.69
2023-07-07T07:47:07.641Z,24.97
2023-07-07T07:49:33.880Z,24.72
2023-07-07T07:52:00.092Z,24.88
2023-07-07T07:54:26.303Z,24.96
2023-07-07T07:56:52.532Z,25.11
2023-07-07T07:59:18.799Z,25.15
2023-07-07T08:01:45.066Z,25.39
2023-07-07T08:04:11.740Z,25.48
2023-07-07T08:06:37.954Z,25.40
2023-07-07T08:09:04.144Z,25.64
2023-07-07T08:11:30.416Z,25.81
2023-07-07T08:13:56.691Z,26.16
2023-07-07T08:16:23.180Z,26.15
2023-07-07T08:18:49.421Z,26.09
2023-07-07T08:21:16.826Z,26.11
2023-07-07T08:23:43.023Z,26.15
2023-07-07T08:31:14.620Z,26.35
2023-07-07T08:33:53.786Z,26.68
2023-07-07T08:36:23.570Z,26.92
2023-07-07T08:38:49.779Z,26.92
2023-07-07T08:41:15.990Z,27.13
2023-07-07T08:43:42.203Z,27.25
2023-07-07T08:46:08.513Z,26.95
2023-07-07T08:48:34.803Z,26.93
2023-07-07T08:51:01.247Z,27.18
2023-07-07T08:53:27.577Z,27.40
2023-07-07T08:55:53.804Z,27.64
2023-07-07T08:58:29.152Z,27.65
2023-07-07T09:00:56.578Z,27.51
2023-07-07T09:03:23.088Z,27.62
2023-07-07T09:05:49.389Z,27.58
2023-07-07T09:08:15.621Z,27.64
2023-07-07T09:10:41.902Z,27.89
2023-07-07T09:13:08.166Z,27.60
2023-07-07T09:15:34.426Z,27.75
2023-07-07T09:18:00.683Z,27.71
2023-07-07T09:20:27.028Z,27.89
2023-07-07T09:22:53.738Z,28.09
2023-07-07T09:25:20.120Z,28.16
2023-07-07T09:27:46.381Z,28.35
2023-07-07T09:30:12.704Z,28.69
2023-07-07T09:32:39.008Z,28.68
2023-07-07T09:35:05.359Z,28.94
2023-07-07T09:37:31.600Z,28.80
2023-07-07T09:40:00.849Z,28.74
2023-07-07T09:42:27.630Z,28.88
2023-07-07T09:44:53.894Z,29.04
2023-07-07T09:47:23.148Z,29.11
2023-07-07T09:49:49.449Z,29.19
2023-07-07T09:52:15.626Z,29.37
2023-07-07T09:54:41.878Z,29.39
2023-07-07T09:57:08.089Z,29.40
2023-07-07T09:59:34.312Z,29.62
2023-07-07T10:02:00.573Z,29.60
2023-07-07T10:04:26.930Z,29.54
2023-07-07T10:06:53.182Z,29.76
2023-07-07T10:09:19.446Z,29.59
2023-07-07T10:14:14.986Z,29.72
2023-07-07T10:16:41.192Z,29.62
2023-07-07T10:19:07.568Z,29.83
2023-07-07T10:21:33.805Z,29.78
2023-07-07T10:24:00.573Z,30.05
2023-07-07T10:26:27.908Z,30.07
2023-07-07T10:28:54.263Z,30.51
2023-07-07T10:31:20.892Z,30.73
2023-07-07T10:33:47.092Z,31.03
2023-07-07T10:39:02.427Z,31.04
2023-07-07T10:41:28.894Z,31.01
2023-07-07T10:43:55.353Z,31.00
2023-07-07T10:46:21.661Z,31.02
2023-07-07T10:48:47.926Z,31.16
2023-07-07T10:51:14.292Z,31.36
2023-07-07T10:53:40.524Z,31.37
2023-07-07T10:56:06.745Z,31.25
2023-07-07T10:58:33.012Z,31.22
2023-07-07T11:00:59.625Z,31.28
2023-07-07T11:03:27.325Z,31.48
2023-07-07T11:06:03.347Z,31.60
2023-07-07T11:08:31.670Z,31.60
2023-07-07T11:10:58.234Z,31.66
2023-07-07T11:13:24.731Z,32.00
2023-07-07T11:15:50.980Z,32.23
2023-07-07T11:18:17.240Z,32.60
2023-07-07T11:20:43.491Z,33.00
2023-07-07T11:23:09.708Z,33.08
2023-07-07T11:25:35.997Z,32.76
2023-07-07T11:28:02.408Z,32.57
2023-07-07T11:30:28.890Z,32.66
2023-07-07T11:32:55.140Z,32.50
2023-07-07T11:35:21.365Z,32.42
2023-07-07T11:37:47.840Z,32.17
2023-07-07T11:40:14.122Z,32.25
2023-07-07T11:42:40.533Z,32.21
2023-07-07T11:45:06.965Z,32.16
2023-07-07T11:47:33.322Z,32.13
2023-07-07T11:49:59.609Z,32.06
2023-07-07T11:52:25.781Z,32.13
2023-07-07T11:54:51.962Z,32.22
2023-07-07T11:57:18.230Z,32.08
2023-07-07T11:59:44.490Z,32.21
2023-07-07T12:02:10.802Z,32.36
2023-07-07T12:04:37.286Z,32.42
2023-07-07T12:07:03.674Z,32.62
2023-07-07T12:09:29.962Z,32.80
2023-07-07T12:11:56.186Z,32.85
2023-07-07T12:14:22.442Z,32.90
2023-07-07T12:16:48.939Z,32.88
2023-07-07T12:19:15.175Z,32.88
2023-07-07T12:21:41.404Z,32.25
2023-07-07T12:24:07.699Z,31.47
2023-07-07T12:26:36.636Z,31.34
2023-07-07T12:29:03.597Z,31.52
2023-07-07T12:31:29.920Z,31.72
2023-07-07T12:33:56.116Z,32.20
2023-07-07T12:36:22.454Z,32.35
2023-07-07T12:38:48.645Z,32.34
2023-07-07T12:41:14.908Z,32.55
2023-07-07T12:43:41.164Z,32.76
2023-07-07T12:46:07.650Z,32.80
2023-07-07T12:48:35.832Z,32.89
2023-07-07T12:51:02.244Z,33.15
2023-07-07T12:53:29.044Z,33.03
2023-07-07T12:55:57.473Z,32.94
2023-07-07T12:58:23.942Z,33.01
2023-07-07T13:00:50.296Z,32.99
2023-07-07T13:03:16.748Z,32.87
2023-07-07T13:05:51.492Z,32.94
2023-07-07T13:08:17.775Z,32.78
2023-07-07T13:10:43.988Z,33.07
2023-07-07T13:13:10.202Z,33.18
2023-07-07T13:15:36.542Z,33.16
2023-07-07T13:18:02.899Z,32.87
2023-07-07T13:20:29.131Z,32.92
2023-07-07T13:22:55.604Z,32.96
2023-07-07T13:25:21.867Z,33.03
2023-07-07T13:27:48.127Z,33.23
2023-07-07T13:30:14.538Z,33.20
2023-07-07T13:32:40.874Z,33.54
2023-07-07T13:35:07.180Z,33.74
2023-07-07T13:37:33.439Z,33.93
2023-07-07T13:39:59.703Z,33.99
2023-07-07T13:42:25.966Z,33.73
2023-07-07T13:44:54.468Z,34.08
2023-07-07T13:47:21.003Z,34.12
2023-07-07T13:49:47.297Z,34.48
2023-07-07T13:55:03.828Z,34.59
2023-07-07T13:57:30.052Z,34.51
2023-07-07T13:59:56.274Z,34.63
2023-07-07T14:02:25.628Z,34.72
2023-07-07T14:04:54.473Z,34.64
2023-07-07T14:07:21.522Z,34.70
2023-07-07T14:09:47.983Z,34.85
2023-07-07T14:12:14.365Z,34.66
2023-07-07T14:14:40.693Z,34.32
2023-07-07T14:17:07.125Z,34.25
2023-07-07T14:19:33.382Z,34.55
2023-07-07T14:21:59.612Z,34.51
2023-07-07T14:24:26.043Z,34.40
2023-07-07T14:26:52.312Z,34.16
2023-07-07T14:29:18.586Z,34.35
2023-07-07T14:31:44.929Z,34.47
2023-07-07T14:34:11.210Z,34.48
2023-07-07T14:36:37.402Z,34.55
2023-07-07T14:39:03.692Z,34.45
2023-07-07T14:41:30.082Z,34.63
2023-07-07T14:43:56.334Z,34.70
2023-07-07T14:46:22.585Z,34.82
2023-07-07T14:48:48.824Z,35.00
2023-07-07T14:51:15.025Z,34.90
2023-07-07T14:53:41.288Z,34.80
2023-07-07T14:56:07.472Z,34.54
2023-07-07T14:58:33.688Z,34.94
2023-07-07T15:01:00.116Z,35.09
2023-07-07T15:03:26.648Z,35.17
2023-07-07T15:05:56.111Z,35.25
2023-07-07T15:08:22.448Z,35.15
2023-07-07T15:10:48.992Z,35.06
2023-07-07T15:13:15.220Z,35.12
2023-07-07T15:15:41.495Z,35.12
2023-07-07T15:18:07.808Z,35.30
2023-07-07T15:20:34.077Z,35.42
2023-07-07T15:23:00.321Z,35.18
2023-07-07T15:25:26.583Z,34.14
2023-07-07T15:27:52.779Z,34.14
2023-07-07T15:30:18.992Z,34.40
2023-07-07T15:32:45.370Z,34.71
2023-07-07T15:35:11.613Z,34.88
2023-07-07T15:37:37.782Z,35.29
2023-07-07T15:40:04.044Z,35.33
2023-07-07T15:42:30.307Z,35.53
2023-07-07T15:44:56.528Z,35.31
2023-07-07T15:47:22.847Z,35.27
2023-07-07T15:49:49.101Z,35.31
2023-07-07T15:52:15.542Z,35.44
2023-07-07T15:54:41.935Z,35.45
2023-07-07T15:57:08.127Z,35.50
2023-07-07T15:59:34.426Z,35.23
2023-07-07T16:02:00.731Z,35.14
2023-07-07T16:04:27.068Z,35.20
2023-07-07T16:06:53.684Z,35.05
2023-07-07T16:09:20.031Z,35.28
2023-07-07T16:11:46.439Z,35.16
2023-07-07T16:14:14.804Z,35.06
2023-07-07T16:16:42.990Z,35.00
2023-07-07T16:19:09.247Z,34.90
2023-07-07T16:21:37.196Z,34.87
2023-07-07T16:24:03.448Z,35.08
2023-07-07T16:26:30.741Z,35.26
2023-07-07T16:28:57.089Z,35.04
2023-07-07T16:31:23.354Z,34.76
2023-07-07T16:33:49.590Z,34.87
2023-07-07T16:36:15.961Z,34.56
2023-07-07T16:38:43.379Z,34.70
2023-07-07T16:41:09.683Z,34.76
2023-07-07T16:43:35.909Z,34.97
2023-07-07T16:46:02.163Z,35.12
2023-07-07T16:48:38.026Z,35.23
2023-07-07T16:51:12.217Z,35.13
2023-07-07T16:53:38.933Z,35.16
2023-07-07T16:56:05.304Z,35.24
2023-07-07T16:58:33.554Z,34.80
2023-07-07T17:01:00.050Z,34.65
2023-07-07T17:03:26.796Z,34.49
2023-07-07T17:05:53.199Z,34.39
2023-07-07T17:08:19.478Z,33.99
2023-07-07T17:10:45.838Z,33.88
2023-07-07T17:13:14.276Z,33.59
2023-07-07T17:15:44.669Z,33.31
2023-07-07T17:18:11.081Z,32.93
2023-07-07T17:20:37.296Z,32.77
2023-07-07T17:23:04.556Z,32.40
2023-07-07T17:25:30.795Z,32.21
2023-07-07T17:27:59.132Z,32.09
2023-07-07T17:30:25.359Z,31.86
2023-07-07T17:32:51.629Z,31.64
2023-07-07T17:35:17.845Z,31.49
2023-07-07T17:37:46.135Z,31.42
2023-07-07T17:40:12.392Z,31.32
2023-07-07T17:42:38.762Z,31.28
2023-07-07T17:45:05.019Z,31.19
2023-07-07T17:47:31.425Z,31.26
2023-07-07T17:49:57.690Z,31.25
2023-07-07T17:52:23.959Z,31.15
2023-07-07T17:54:50.318Z,31.06
2023-07-07T17:57:16.610Z,31.04
2023-07-07T17:59:42.904Z,30.95
2023-07-07T18:02:09.362Z,30.84
2023-07-07T18:04:35.817Z,30.73
2023-07-07T18:07:02.245Z,30.80
2023-07-07T18:09:28.602Z,30.78
2023-07-07T18:11:54.789Z,30.74
2023-07-07T18:14:21.002Z,30.69
2023-07-07T18:16:55.802Z,30.60
2023-07-07T18:20:32.370Z,30.55
2023-07-07T18:22:18.183Z,30.54
2023-07-07T18:24:44.701Z,30.40
2023-07-07T18:27:11.090Z,30.35
2023-07-07T18:29:37.745Z,30.29
2023-07-07T18:32:04.070Z,30.16
2023-07-07T18:34:30.256Z,29.99
2023-07-07T18:36:56.458Z,29.91
2023-07-07T18:39:22.709Z,29.76
2023-07-07T18:41:48.960Z,29.66
2023-07-07T18:44:15.240Z,29.58
2023-07-07T18:46:41.572Z,29.46
2023-07-07T18:49:07.827Z,29.33
2023-07-07T18:51:34.166Z,29.14
2023-07-07T18:54:00.418Z,28.93
2023-07-07T18:56:26.678Z,28.74
2023-07-07T18:58:53.020Z,28.65
2023-07-07T19:01:21.400Z,28.67
2023-07-07T19:03:47.662Z,28.65
2023-07-07T19:06:13.920Z,28.56
2023-07-07T19:08:40.254Z,28.44
2023-07-07T19:11:06.493Z,28.31
2023-07-07T19:13:32.887Z,28.13
2023-07-07T19:15:59.352Z,27.93
2023-07-07T19:18:25.782Z,27.76
2023-07-07T19:20:52.025Z,27.58
2023-07-07T19:23:18.269Z,27.44
2023-07-07T19:25:44.552Z,27.34
2023-07-07T19:28:11.336Z,27.26
2023-07-07T19:30:37.821Z,27.20
2023-07-07T19:33:04.113Z,27.20
2023-07-07T19:35:30.370Z,27.19
2023-07-07T19:37:56.701Z,27.29
2023-07-07T19:40:23.114Z,27.31
2023-07-07T19:42:49.381Z,27.27
2023-07-07T19:45:15.603Z,27.26
2023-07-07T19:47:41.872Z,27.14
2023-07-07T19:50:08.235Z,27.01
2023-07-07T19:52:36.421Z,26.93
2023-07-07T19:55:02.873Z,26.85
2023-07-07T19:57:29.141Z,26.75
2023-07-07T19:59:55.319Z,26.68
2023-07-07T20:02:21.756Z,26.70
2023-07-07T20:04:48.178Z,26.60
2023-07-07T20:07:14.428Z,26.81
2023-07-07T20:09:40.866Z,26.87
2023-07-07T20:12:07.144Z,26.95
2023-07-07T20:14:33.491Z,26.95
2023-07-07T20:16:59.764Z,26.84
2023-07-07T20:19:26.079Z,26.77
2023-07-07T20:21:52.620Z,26.70
2023-07-07T20:24:19.040Z,26.89
2023-07-07T20:26:47.235Z,26.86
2023-07-07T20:29:13.913Z,26.74
2023-07-07T20:31:40.217Z,26.62
2023-07-07T20:34:06.542Z,26.48
2023-07-07T20:36:32.782Z,26.46
2023-07-07T20:38:59.009Z,26.37
2023-07-07T20:41:25.234Z,26.25
2023-07-07T20:43:51.457Z,26.25
2023-07-07T20:46:17.711Z,26.23
2023-07-07T20:48:43.930Z,26.28
2023-07-07T20:51:10.148Z,26.31
2023-07-07T20:53:36.374Z,26.38
2023-07-07T20:56:02.648Z,26.32
2023-07-07T20:58:28.950Z,26.32
2023-07-07T21:00:55.142Z,26.28
2023-07-07T21:03:21.527Z,26.21
2023-07-07T21:05:47.813Z,26.18
2023-07-07T21:08:14.049Z,26.14
2023-07-07T21:10:40.311Z,26.09
2023-07-07T21:13:06.551Z,26.07
2023-07-07T21:15:32.787Z,26.06
2023-07-07T21:17:59.035Z,26.00
2023-07-07T21:20:25.300Z,25.90
2023-07-07T21:22:51.801Z,25.88
2023-07-07T21:25:17.987Z,25.83
2023-07-07T21:27:44.243Z,25.76
2023-07-07T21:30:10.471Z,25.70
2023-07-07T21:32:36.679Z,25.63
2023-07-07T21:35:02.896Z,25.58
2023-07-07T21:37:29.151Z,25.51
2023-07-07T21:39:55.353Z,25.44
2023-07-07T21:42:21.581Z,25.45
2023-07-07T21:44:47.881Z,25.41
2023-07-07T21:47:14.242Z,25.38
2023-07-07T21:49:40.473Z,25.37
2023-07-07T21:52:06.709Z,25.35
2023-07-07T21:54:32.965Z,25.42
2023-07-07T21:56:59.171Z,25.39
2023-07-07T21:59:25.386Z,25.34
2023-07-07T22:01:51.666Z,25.38
2023-07-07T22:04:17.890Z,25.34
2023-07-07T22:06:44.075Z,25.46
2023-07-07T22:09:10.294Z,25.49
2023-07-07T22:11:36.664Z,25.50
2023-07-07T22:14:02.928Z,25.51
2023-07-07T22:16:29.228Z,25.45
2023-07-07T22:18:56.061Z,25.44
2023-07-07T22:21:22.442Z,25.42
2023-07-07T22:23:48.651Z,25.42
2023-07-07T22:26:14.860Z,25.42
2023-07-07T22:28:41.074Z,25.41
2023-07-07T22:31:07.239Z,25.43
2023-07-07T22:33:33.490Z,25.46
2023-07-07T22:35:59.893Z,25.43
2023-07-07T22:38:26.181Z,25.37
2023-07-07T22:40:52.421Z,25.48
2023-07-07T22:43:18.645Z,25.46
2023-07-07T22:45:44.860Z,25.45
2023-07-07T22:48:11.112Z,25.47
2023-07-07T22:50:37.332Z,25.41
2023-07-07T22:53:03.550Z,25.43
2023-07-07T22:55:29.739Z,25.53
2023-07-07T22:57:55.972Z,25.49
2023-07-07T23:00:22.170Z,25.47
2023-07-07T23:02:48.491Z,25.36
2023-07-07T23:05:14.773Z,25.38
2023-07-07T23:07:40.975Z,25.24
2023-07-07T23:10:07.196Z,25.19
2023-07-07T23:12:33.405Z,25.16
2023-07-07T23:14:59.620Z,25.10
2023-07-07T23:17:25.884Z,25.03
2023-07-07T23:19:52.090Z,24.95
2023-07-07T23:22:18.335Z,24.89
2023-07-07T23:24:44.566Z,24.73
2023-07-07T23:27:10.791Z,24.69
2023-07-07T23:29:36.980Z,24.68
2023-07-07T23:32:03.190Z,24.73
2023-07-07T23:34:29.451Z,24.78
2023-07-07T23:36:55.696Z,24.81
2023-07-07T23:39:21.877Z,24.89
2023-07-07T23:41:48.048Z,24.98
2023-07-07T23:44:14.268Z,24.93
2023-07-07T23:46:40.523Z,24.87
2023-07-07T23:49:06.829Z,24.82
2023-07-07T23:51:33.088Z,24.79
2023-07-07T23:53:59.275Z,24.70
2023-07-07T23:56:25.690Z,24.59
2023-07-07T23:58:51.989Z,24.44
